Time;durP1;ratioP1;P1;durP2;ratioP2;P2;SDS_P1;SDS_P2;PMS_P1;PMS_P2;Temp;Humidity;BMP_temperature;BMP_pressure;BME280_temperature;BME280_humidity;BME280_pressure;Samples;Min_cycle;Max_cycle;Signal;HPM_P1;HPM_P2
2023/10/27 00:00:37;;;;;;;0.85;0.85;;;;;;;3.69;88.71;99225.28;5008317;28;20022;-74
2023/10/27 00:03:04;;;;;;;0.68;0.68;;;;;;;3.65;88.62;99213.31;5008183;28;20076;-74
2023/10/27 00:05:30;;;;;;;0.90;0.77;;;;;;;3.49;88.60;99193.59;5008165;28;20023;-74
2023/10/27 00:07:56;;;;;;;1.10;1.10;;;;;;;3.67;88.41;99203.91;5006890;28;20037;-72
2023/10/27 00:10:22;;;;;;;4.07;1.70;;;;;;;3.67;88.41;99205.63;5008052;28;20057;-72
2023/10/27 00:12:47;;;;;;;1.05;0.90;;;;;;;3.61;88.59;99201.31;5006549;28;20050;-74
2023/10/27 00:15:13;;;;;;;0.60;0.60;;;;;;;3.65;88.40;99209.88;5006707;28;20061;-73
2023/10/27 00:17:38;;;;;;;0.90;0.90;;;;;;;3.59;88.29;99197.91;5007918;28;20022;-74
2023/10/27 00:20:05;;;;;;;0.93;0.80;;;;;;;3.62;88.16;99203.03;5007769;28;20057;-74
2023/10/27 00:22:32;;;;;;;1.13;1.02;;;;;;;3.59;88.44;99208.19;5007667;28;20384;-73
2023/10/27 00:24:58;;;;;;;0.63;0.63;;;;;;;3.59;88.50;99210.75;5007923;28;20022;-73
2023/10/27 00:27:24;;;;;;;0.60;0.60;;;;;;;3.58;88.37;99201.31;5007310;28;20026;-72
2023/10/27 00:29:49;;;;;;;0.88;0.85;;;;;;;3.56;88.24;99201.31;5006644;28;20101;-72
2023/10/27 00:32:14;;;;;;;0.50;0.50;;;;;;;3.55;88.29;99198.75;5007265;28;20062;-72
2023/10/27 00:34:40;;;;;;;0.52;0.52;;;;;;;3.55;88.26;99203.88;5007539;28;20030;-73
2023/10/27 00:37:05;;;;;;;1.30;1.20;;;;;;;3.54;88.63;99205.59;5007477;28;20530;-73
2023/10/27 00:39:30;;;;;;;1.00;1.00;;;;;;;3.57;88.29;99205.59;5006194;28;20022;-73
2023/10/27 00:41:56;;;;;;;0.60;0.60;;;;;;;3.50;88.25;99187.66;5007500;28;20026;-72
2023/10/27 00:44:22;;;;;;;0.43;0.43;;;;;;;3.55;88.19;99199.59;5007228;28;20026;-72
2023/10/27 00:46:49;;;;;;;0.98;0.70;;;;;;;3.54;88.26;99194.47;5006269;28;20146;-72
2023/10/27 00:49:15;;;;;;;0.95;0.88;;;;;;;3.54;88.17;99195.34;5006701;28;20080;-72
2023/10/27 00:51:41;;;;;;;0.63;0.63;;;;;;;3.56;88.43;99192.78;5006967;28;20026;-73
2023/10/27 00:54:08;;;;;;;0.70;0.70;;;;;;;3.54;88.30;99191.91;5007261;28;20026;-72
2023/10/27 00:56:35;;;;;;;0.60;0.60;;;;;;;3.52;88.55;99183.34;5007160;28;20060;-72
2023/10/27 00:59:01;;;;;;;1.10;0.95;;;;;;;3.55;88.62;99191.91;5006999;28;20030;-71
2023/10/27 01:01:27;;;;;;;0.82;0.82;;;;;;;3.56;88.50;99190.22;5005643;28;20026;-72
2023/10/27 01:03:52;;;;;;;0.70;0.70;;;;;;;3.54;88.34;99186.78;5006983;28;20037;-72
2023/10/27 01:06:18;;;;;;;0.73;0.73;;;;;;;3.59;88.34;99188.47;5007188;28;20105;-73
2023/10/27 01:08:43;;;;;;;0.40;0.40;;;;;;;3.57;88.44;99187.66;5006883;28;20030;-72
2023/10/27 01:11:09;;;;;;;3.03;1.30;;;;;;;3.55;88.50;99180.78;5006778;28;20026;-73
2023/10/27 01:13:34;;;;;;;1.15;0.80;;;;;;;3.59;88.47;99195.34;5005142;28;20054;-72
2023/10/27 01:16:00;;;;;;;0.65;0.65;;;;;;;3.55;88.29;99181.66;5005390;28;20033;-72
2023/10/27 01:18:25;;;;;;;0.70;0.68;;;;;;;3.53;88.54;99179.94;4989176;28;20040;-72
2023/10/27 01:20:51;;;;;;;0.90;0.80;;;;;;;3.41;88.55;99158.53;5006599;28;20050;-72
2023/10/27 01:23:16;;;;;;;0.40;0.40;;;;;;;3.56;88.58;99183.34;5005318;28;20022;-72
2023/10/27 01:25:41;;;;;;;0.60;0.60;;;;;;;3.57;88.92;99185.06;5006363;28;20033;-73
2023/10/27 01:28:09;;;;;;;7.97;1.15;;;;;;;3.57;88.49;99182.50;5006272;28;20023;-72
2023/10/27 01:30:34;;;;;;;0.50;0.50;;;;;;;3.54;88.26;99166.25;5004833;28;20398;-73
2023/10/27 01:32:59;;;;;;;1.05;0.95;;;;;;;3.56;88.49;99177.38;5006388;28;20026;-71
2023/10/27 01:35:25;;;;;;;0.75;0.75;;;;;;;3.58;88.55;99180.78;5021433;28;20029;-72
2023/10/27 01:37:50;;;;;;;0.50;0.50;;;;;;;3.55;88.50;99183.34;5004828;28;20033;-71
2023/10/27 01:40:15;;;;;;;0.90;0.70;;;;;;;3.54;88.52;99163.69;5006921;28;20034;-73
2023/10/27 01:42:41;;;;;;;1.20;1.10;;;;;;;3.53;88.49;99167.13;5006169;28;20026;-73
2023/10/27 01:45:07;;;;;;;0.50;0.50;;;;;;;3.51;88.68;99161.13;5004972;28;20026;-73
2023/10/27 01:47:33;;;;;;;1.00;0.70;;;;;;;3.61;88.49;99172.25;5006272;28;20030;-73
2023/10/27 01:49:58;;;;;;;0.82;0.82;;;;;;;3.57;88.41;99173.94;5005976;28;20037;-73
2023/10/27 01:52:24;;;;;;;3.22;1.38;;;;;;;3.58;88.57;99167.94;5006028;28;20381;-73
2023/10/27 01:54:50;;;;;;;1.23;1.13;;;;;;;3.59;88.38;99161.97;5004755;28;20070;-74
2023/10/27 01:57:16;;;;;;;1.35;1.25;;;;;;;3.60;88.75;99171.38;5004054;28;20073;-72
2023/10/27 01:59:44;;;;;;;1.95;0.82;;;;;;;3.56;88.69;99152.53;5004132;28;20026;-74
2023/10/27 02:02:13;;;;;;;0.60;0.60;;;;;;;3.59;88.63;99156.84;5005574;28;20018;-74
2023/10/27 02:04:38;;;;;;;0.60;0.60;;;;;;;3.57;88.46;99151.72;5005870;28;20030;-73
2023/10/27 02:07:04;;;;;;;0.80;0.80;;;;;;;3.56;88.79;99157.69;5005818;28;20030;-72
2023/10/27 02:09:30;;;;;;;0.68;0.68;;;;;;;3.59;88.60;99159.41;5005698;28;20018;-73
2023/10/27 02:11:55;;;;;;;0.60;0.60;;;;;;;3.56;88.40;99147.41;5004455;28;20026;-73
2023/10/27 02:14:21;;;;;;;1.15;1.05;;;;;;;3.61;88.58;99146.56;5005714;28;20026;-73
2023/10/27 02:16:46;;;;;;;0.47;0.47;;;;;;;3.60;88.23;99138.00;5005669;28;20045;-72
2023/10/27 02:19:13;;;;;;;2.17;1.25;;;;;;;3.56;88.69;99139.72;5004220;28;20018;-73
2023/10/27 02:21:38;;;;;;;1.08;0.98;;;;;;;3.57;88.65;99140.59;5005422;28;20065;-74
2023/10/27 02:24:04;;;;;;;0.75;0.60;;;;;;;3.55;88.61;99140.59;5005753;28;20033;-74
2023/10/27 02:26:29;;;;;;;1.15;0.85;;;;;;;3.59;88.68;99144.84;5004189;28;20093;-73
2023/10/27 02:28:55;;;;;;;0.93;0.82;;;;;;;3.57;88.86;99141.44;5005341;28;20026;-73
2023/10/27 02:31:20;;;;;;;2.13;0.77;;;;;;;3.62;88.82;99149.16;5005449;28;20027;-74
2023/10/27 02:33:45;;;;;;;0.60;0.60;;;;;;;3.62;88.73;99151.72;5003955;28;20022;-72
2023/10/27 02:36:10;;;;;;;0.50;0.50;;;;;;;3.59;88.55;99151.72;5005594;28;20071;-73
2023/10/27 02:38:36;;;;;;;0.57;0.57;;;;;;;3.61;88.69;99149.97;5005367;28;20026;-72
2023/10/27 02:41:08;;;;;;;4.75;2.05;;;;;;;3.62;88.97;99151.72;5005517;28;20022;-73
2023/10/27 02:43:34;;;;;;;0.73;0.73;;;;;;;3.61;88.84;99154.28;5005266;28;20033;-72
2023/10/27 02:46:02;;;;;;;1.27;1.20;;;;;;;3.44;88.74;99120.06;5005250;28;20026;-73
2023/10/27 02:48:28;;;;;;;0.50;0.50;;;;;;;3.63;88.95;99152.53;5005377;28;20057;-72
2023/10/27 02:50:53;;;;;;;0.60;0.60;;;;;;;3.59;88.84;99144.00;5003997;28;20026;-74
2023/10/27 02:53:19;;;;;;;0.90;0.90;;;;;;;3.61;88.66;99134.56;5020390;28;20113;-72
2023/10/27 02:55:44;;;;;;;0.60;0.60;;;;;;;3.64;88.56;99132.03;5020211;28;20032;-72
2023/10/27 02:58:10;;;;;;;1.77;0.80;;;;;;;3.64;88.61;99137.19;5005003;28;20022;-74
2023/10/27 03:00:40;;;;;;;0.60;0.60;;;;;;;3.61;88.75;99136.31;5005367;28;20030;-73
2023/10/27 03:03:05;;;;;;;0.60;0.60;;;;;;;3.66;88.83;99142.31;5005290;28;20035;-73
2023/10/27 03:05:30;;;;;;;0.50;0.50;;;;;;;3.61;88.82;99128.63;5005194;28;20042;-73
2023/10/27 03:07:56;;;;;;;0.50;0.50;;;;;;;3.62;88.69;99140.56;5004925;28;20030;-72
2023/10/27 03:10:21;;;;;;;1.70;1.13;;;;;;;3.64;88.93;99144.88;5004960;28;20026;-72
2023/10/27 03:12:46;;;;;;;2.45;0.70;;;;;;;3.62;88.93;99135.44;5007611;28;20118;-72
2023/10/27 03:15:11;;;;;;;0.82;0.82;;;;;;;3.67;88.61;99133.75;5008928;28;20034;-72
2023/10/27 03:17:37;;;;;;;0.80;0.80;;;;;;;3.66;88.85;99138.00;5007559;28;20018;-72
2023/10/27 03:20:04;;;;;;;1.45;1.35;;;;;;;3.64;88.98;99144.88;5007392;28;20566;-74
2023/10/27 03:22:30;;;;;;;0.50;0.50;;;;;;;3.65;88.78;99128.59;5007059;28;20097;-72
2023/10/27 03:24:56;;;;;;;1.20;1.10;;;;;;;3.64;88.73;99126.91;5008645;28;20022;-72
2023/10/27 03:27:21;;;;;;;0.60;0.60;;;;;;;3.67;88.78;99132.03;5023559;28;20030;-72
2023/10/27 03:29:47;;;;;;;0.47;0.47;;;;;;;3.57;88.80;99117.47;5008766;28;20083;-73
2023/10/27 03:32:12;;;;;;;0.40;0.40;;;;;;;3.61;88.86;99132.00;5008732;28;20031;-73
2023/10/27 03:34:37;;;;;;;0.75;0.60;;;;;;;3.64;89.02;99126.91;5007403;28;20549;-73
2023/10/27 03:37:03;;;;;;;0.43;0.43;;;;;;;3.61;88.96;99129.44;5007409;28;20118;-73
2023/10/27 03:39:29;;;;;;;0.57;0.57;;;;;;;3.62;89.06;99127.75;5008419;28;20315;-73
2023/10/27 03:41:54;;;;;;;0.82;0.80;;;;;;;3.62;89.02;99125.19;5008453;28;20322;-72
2023/10/27 03:44:20;;;;;;;0.63;0.63;;;;;;;3.59;89.14;99115.78;5008390;28;20034;-74
2023/10/27 03:46:45;;;;;;;1.38;0.95;;;;;;;3.62;89.00;99126.03;5007040;28;20033;-73
2023/10/27 03:49:11;;;;;;;0.60;0.60;;;;;;;3.66;88.90;99132.88;5008151;28;20025;-72
2023/10/27 03:51:36;;;;;;;0.98;0.88;;;;;;;3.64;89.00;99126.91;5007060;28;20030;-73
2023/10/27 03:54:02;;;;;;;0.55;0.55;;;;;;;3.65;89.21;99127.75;5008324;28;20033;-72
2023/10/27 03:56:27;;;;;;;0.80;0.80;;;;;;;3.62;89.05;99118.34;5008355;28;20078;-74
2023/10/27 03:58:53;;;;;;;1.02;0.95;;;;;;;3.66;89.20;99130.31;5008202;28;20030;-73
2023/10/27 04:01:18;;;;;;;0.55;0.55;;;;;;;3.63;89.12;99125.19;5008037;28;20037;-73
2023/10/27 04:03:43;;;;;;;1.25;1.15;;;;;;;3.62;89.13;99127.75;5008109;28;20037;-74
2023/10/27 04:06:11;;;;;;;2.60;1.33;;;;;;;3.57;89.32;99122.63;5008144;28;20034;-74
2023/10/27 04:08:36;;;;;;;0.80;0.80;;;;;;;3.61;89.14;99119.19;5008007;28;20026;-76
2023/10/27 04:11:02;;;;;;;1.00;0.95;;;;;;;3.62;89.29;99128.59;5007715;28;20101;-73
2023/10/27 04:13:27;;;;;;;0.70;0.70;;;;;;;3.62;89.35;99122.63;5022754;28;20022;-73
2023/10/27 04:15:53;;;;;;;0.60;0.60;;;;;;;3.60;89.35;99127.75;5007818;28;20049;-74
2023/10/27 04:18:19;;;;;;;1.38;0.93;;;;;;;3.59;89.37;99124.31;5006154;28;20022;-74
2023/10/27 04:20:44;;;;;;;1.23;0.82;;;;;;;3.56;89.33;99120.91;5007806;28;20091;-75
2023/10/27 04:23:09;;;;;;;0.98;0.88;;;;;;;3.60;89.53;99132.88;5022220;28;20022;-75
2023/10/27 04:25:35;;;;;;;0.85;0.85;;;;;;;3.62;89.37;99131.19;5007685;28;20018;-73
2023/10/27 04:28:01;;;;;;;0.52;0.52;;;;;;;3.58;89.46;99122.63;5007624;28;20388;-73
2023/10/27 04:30:26;;;;;;;1.48;0.75;;;;;;;3.55;89.48;99124.31;5007608;28;20026;-74
2023/10/27 04:32:55;;;;;;;0.68;0.68;;;;;;;3.56;89.69;99126.88;5007530;28;20026;-75
2023/10/27 04:35:20;;;;;;;2.25;1.17;;;;;;;3.56;89.52;99120.91;5007619;28;20023;-74
2023/10/27 04:37:45;;;;;;;0.50;0.50;;;;;;;3.56;89.82;99124.31;5006013;28;20028;-73
2023/10/27 04:40:11;;;;;;;0.50;0.50;;;;;;;3.54;89.76;99120.06;5005941;28;20045;-73
2023/10/27 04:42:37;;;;;;;2.60;1.88;;;;;;;3.55;89.46;99121.75;5022272;28;20026;-73
2023/10/27 04:45:02;;;;;;;1.15;0.82;;;;;;;3.56;89.78;99124.31;5007634;28;20495;-74
2023/10/27 04:47:28;;;;;;;0.57;0.57;;;;;;;3.60;89.63;99130.31;5007356;28;20439;-73
2023/10/27 04:49:53;;;;;;;0.65;0.60;;;;;;;3.56;89.62;99120.91;5007284;28;20034;-74
2023/10/27 04:52:19;;;;;;;0.80;0.80;;;;;;;3.52;89.49;99120.06;5007267;28;20026;-74
2023/10/27 04:54:44;;;;;;;1.70;1.05;;;;;;;3.53;89.80;99120.91;5007282;28;20026;-73
2023/10/27 04:57:09;;;;;;;0.93;0.90;;;;;;;3.54;89.83;99125.19;5007171;28;20041;-72
2023/10/27 04:59:35;;;;;;;1.63;1.52;;;;;;;3.55;89.90;99124.31;5006514;28;20037;-72
2023/10/27 05:02:00;;;;;;;1.35;0.88;;;;;;;3.54;89.93;99127.75;5005147;28;20018;-73
2023/10/27 05:04:26;;;;;;;3.85;0.85;;;;;;;3.57;90.00;99127.75;5006797;28;20022;-72
2023/10/27 05:06:52;;;;;;;1.02;0.90;;;;;;;3.52;89.87;99124.31;5006900;28;20061;-72
2023/10/27 05:09:21;;;;;;;1.73;1.58;;;;;;;3.47;90.05;99120.06;5005272;28;20277;-73
2023/10/27 05:11:47;;;;;;;16.17;1.20;;;;;;;3.52;89.99;99129.44;5007021;28;20466;-76
2023/10/27 05:14:13;;;;;;;0.98;0.63;;;;;;;3.55;90.00;99132.88;5006668;28;20022;-76
2023/10/27 05:16:39;;;;;;;0.57;0.57;;;;;;;3.60;89.99;99145.72;5006791;28;20458;-74
2023/10/27 05:19:05;;;;;;;1.85;1.20;;;;;;;3.58;89.87;99135.44;5006273;28;20060;-75
2023/10/27 05:21:30;;;;;;;0.60;0.60;;;;;;;3.59;89.99;99142.28;5006435;28;20045;-74
2023/10/27 05:23:56;;;;;;;2.85;1.52;;;;;;;3.57;89.95;99138.00;5006331;28;20028;-75
2023/10/27 05:26:22;;;;;;;1.02;0.82;;;;;;;3.58;89.86;99134.59;5006193;28;20026;-76
2023/10/27 05:28:49;;;;;;;1.17;1.08;;;;;;;3.56;89.92;99136.31;5004841;28;20014;-76
2023/10/27 05:31:14;;;;;;;4.78;1.63;;;;;;;3.52;90.02;99130.31;5006312;28;20030;-76
2023/10/27 05:33:39;;;;;;;0.85;0.85;;;;;;;3.52;90.05;99142.28;5006245;28;20367;-77
2023/10/27 05:36:05;;;;;;;1.20;1.20;;;;;;;3.47;90.00;99132.88;5006238;28;20105;-76
2023/10/27 05:38:30;;;;;;;2.13;1.20;;;;;;;3.42;90.23;99129.47;5005231;28;20470;-75
2023/10/27 05:40:56;;;;;;;2.10;1.20;;;;;;;3.47;90.25;99135.44;5006376;28;20033;-75
2023/10/27 05:43:22;;;;;;;0.70;0.70;;;;;;;3.47;90.35;99138.03;5006042;28;20026;-75
2023/10/27 05:45:47;;;;;;;1.30;1.05;;;;;;;3.44;90.26;99132.88;5006258;28;20022;-74
2023/10/27 05:48:13;;;;;;;0.40;0.40;;;;;;;3.52;90.29;99142.28;5005199;28;20030;-67
2023/10/27 05:50:38;;;;;;;0.50;0.50;;;;;;;3.44;90.28;99132.88;5006262;28;20061;-75
2023/10/27 05:53:03;;;;;;;1.13;1.02;;;;;;;3.46;90.44;99120.94;5006345;28;20032;-74
2023/10/27 05:55:29;;;;;;;0.90;0.63;;;;;;;3.45;90.30;99134.59;5006452;28;20026;-75
2023/10/27 05:57:54;;;;;;;1.02;0.63;;;;;;;3.46;90.28;99132.88;5005964;28;20494;-75
2023/10/27 06:00:21;;;;;;;0.65;0.65;;;;;;;3.48;90.29;99144.00;5004141;28;20363;-75
2023/10/27 06:02:48;;;;;;;0.63;0.63;;;;;;;3.44;90.13;99132.88;5005112;28;20382;-74
2023/10/27 06:05:15;;;;;;;0.80;0.80;;;;;;;3.47;90.05;99142.28;5005412;28;20042;-75
2023/10/27 06:07:41;;;;;;;0.70;0.70;;;;;;;3.44;90.03;99137.16;5005919;28;20049;-75
2023/10/27 06:10:07;;;;;;;1.13;0.73;;;;;;;3.45;90.08;99138.88;5005228;28;20026;-74
2023/10/27 06:12:32;;;;;;;0.95;0.95;;;;;;;3.42;90.00;99128.63;5005645;28;20042;-75
2023/10/27 06:14:58;;;;;;;1.50;0.98;;;;;;;3.40;90.12;99130.31;4988187;28;20050;-75
2023/10/27 06:17:23;;;;;;;0.50;0.50;;;;;;;3.39;90.16;99131.16;5005706;28;20022;-75
2023/10/27 06:19:49;;;;;;;1.00;1.00;;;;;;;3.42;90.24;99136.31;5003959;28;20114;-74
2023/10/27 06:22:14;;;;;;;1.95;0.82;;;;;;;3.39;90.22;99133.72;5005751;28;20043;-74
2023/10/27 06:24:40;;;;;;;0.88;0.88;;;;;;;3.33;90.09;99124.31;5004505;28;20050;-75
2023/10/27 06:27:05;;;;;;;2.28;1.30;;;;;;;3.38;90.38;99126.88;5004487;28;20018;-74
2023/10/27 06:29:31;;;;;;;1.38;0.98;;;;;;;3.40;89.99;99141.44;5004031;28;20064;-74
2023/10/27 06:31:56;;;;;;;0.85;0.85;;;;;;;3.34;89.92;99132.03;5005350;28;20041;-74
2023/10/27 06:34:21;;;;;;;0.45;0.45;;;;;;;3.37;89.96;99141.41;5005331;28;20034;-75
2023/10/27 06:36:47;;;;;;;1.25;1.15;;;;;;;3.38;89.82;99137.16;5005716;28;20041;-74
2023/10/27 06:39:13;;;;;;;1.60;0.98;;;;;;;3.35;89.94;99138.03;5004386;28;20395;-75
2023/10/27 06:41:39;;;;;;;0.90;0.90;;;;;;;3.32;89.97;99138.84;5004658;28;20018;-75
2023/10/27 06:44:06;;;;;;;2.03;1.23;;;;;;;3.33;89.88;99150.84;5005268;28;20030;-74
2023/10/27 06:46:31;;;;;;;0.75;0.75;;;;;;;3.32;89.85;99149.13;5005253;28;20026;-75
2023/10/27 06:48:56;;;;;;;0.50;0.50;;;;;;;3.33;89.81;99149.97;5005493;28;20037;-74
2023/10/27 06:51:22;;;;;;;0.60;0.60;;;;;;;3.33;89.76;99144.84;5005541;28;20027;-75
2023/10/27 06:53:47;;;;;;;4.15;0.82;;;;;;;3.36;90.02;99152.53;5005601;28;20026;-72
2023/10/27 06:56:12;;;;;;;0.63;0.60;;;;;;;3.30;89.82;99147.41;5020264;28;20025;-74
2023/10/27 06:58:38;;;;;;;0.50;0.50;;;;;;;3.39;89.72;99159.38;5005206;28;20030;-75
2023/10/27 07:01:13;;;;;;;0.68;0.68;;;;;;;3.38;89.91;99158.53;5020689;28;20097;-75
2023/10/27 07:03:38;;;;;;;1.65;0.82;;;;;;;3.42;89.35;99165.38;5005676;28;20039;-74
2023/10/27 07:06:04;;;;;;;0.40;0.40;;;;;;;3.38;89.28;99158.53;5004310;28;20034;-74
2023/10/27 07:08:30;;;;;;;0.50;0.50;;;;;;;3.42;88.93;99164.53;5003997;28;20022;-75
2023/10/27 07:10:58;;;;;;;0.70;0.70;;;;;;;3.44;88.74;99162.81;5005508;28;20037;-74
2023/10/27 07:13:28;;;;;;;0.90;0.90;;;;;;;3.37;88.84;99154.25;5003767;28;20037;-74
2023/10/27 07:15:54;;;;;;;0.73;0.73;;;;;;;3.44;89.02;99168.81;5004183;28;20042;-75
2023/10/27 07:18:20;;;;;;;1.80;1.70;;;;;;;3.45;89.19;99159.41;5005594;28;20038;-74
2023/10/27 07:20:46;;;;;;;0.68;0.68;;;;;;;3.47;89.13;99166.25;5005129;28;20042;-74
2023/10/27 07:23:11;;;;;;;1.17;1.05;;;;;;;3.46;89.12;99161.97;5005419;28;20022;-74
2023/10/27 07:25:37;;;;;;;1.00;0.90;;;;;;;3.55;88.79;99170.50;5005420;28;20026;-74
2023/10/27 07:28:02;;;;;;;2.42;1.02;;;;;;;3.51;88.90;99163.69;5003915;28;20034;-75
2023/10/27 07:30:28;;;;;;;0.88;0.77;;;;;;;3.58;89.12;99167.94;5005300;28;20027;-74
2023/10/27 07:32:54;;;;;;;1.58;0.85;;;;;;;3.56;88.70;99160.25;5005392;28;20364;-74
2023/10/27 07:35:20;;;;;;;1.52;1.40;;;;;;;3.60;88.74;99163.69;5005481;28;20094;-74
2023/10/27 07:37:45;;;;;;;0.63;0.63;;;;;;;3.60;88.82;99163.69;5005286;28;20018;-74
2023/10/27 07:40:11;;;;;;;2.58;1.48;;;;;;;3.64;88.64;99175.69;5005301;28;20490;-73
2023/10/27 07:42:36;;;;;;;0.77;0.77;;;;;;;3.64;88.66;99173.09;5004986;28;20045;-73
2023/10/27 07:45:04;;;;;;;0.75;0.73;;;;;;;3.63;88.74;99166.25;5005217;28;20089;-74
2023/10/27 07:47:29;;;;;;;0.85;0.85;;;;;;;3.55;88.42;99155.97;5003883;28;20430;-73
2023/10/27 07:49:55;;;;;;;1.13;1.13;;;;;;;3.61;88.51;99175.66;5005006;28;20027;-74
2023/10/27 07:52:20;;;;;;;0.93;0.93;;;;;;;3.64;88.21;99180.81;5004833;28;20533;-74
2023/10/27 07:54:46;;;;;;;0.73;0.70;;;;;;;3.64;88.18;99169.69;5003802;28;20026;-74
2023/10/27 07:57:11;;;;;;;1.50;1.00;;;;;;;3.66;87.98;99173.09;5003870;28;20482;-73
2023/10/27 07:59:36;;;;;;;0.60;0.60;;;;;;;3.64;88.10;99173.09;5005993;28;20018;-75
2023/10/27 08:02:04;;;;;;;1.48;1.38;;;;;;;3.62;87.81;99161.97;5007301;28;20364;-74
2023/10/27 08:04:32;;;;;;;1.13;0.98;;;;;;;3.56;87.66;99154.28;5008478;28;20073;-75
2023/10/27 08:06:57;;;;;;;0.50;0.50;;;;;;;3.65;87.41;99174.81;5007177;28;20026;-75
2023/10/27 08:09:23;;;;;;;0.65;0.65;;;;;;;3.65;87.39;99171.38;5006954;28;20022;-75
2023/10/27 08:11:49;;;;;;;1.30;1.10;;;;;;;3.63;87.38;99179.06;5007249;28;20053;-74
2023/10/27 08:14:14;;;;;;;0.70;0.68;;;;;;;3.65;87.39;99174.81;5008302;28;20027;-74
2023/10/27 08:16:40;;;;;;;0.77;0.77;;;;;;;3.59;87.56;99173.06;5007026;28;20061;-74
2023/10/27 08:19:05;;;;;;;0.85;0.85;;;;;;;3.61;87.41;99170.50;5007823;28;20022;-74
2023/10/27 08:21:31;;;;;;;1.70;1.20;;;;;;;3.60;87.63;99179.06;5007678;28;20046;-73
2023/10/27 08:23:56;;;;;;;1.55;1.45;;;;;;;3.59;87.64;99169.69;5006649;28;20092;-73
2023/10/27 08:26:22;;;;;;;1.80;1.70;;;;;;;3.61;87.35;99174.81;5007767;28;20030;-74
2023/10/27 08:28:47;;;;;;;0.73;0.73;;;;;;;3.61;87.56;99173.06;5006013;28;20023;-75
2023/10/27 08:31:16;;;;;;;0.75;0.75;;;;;;;3.64;87.44;99173.09;5007791;28;20026;-74
2023/10/27 08:33:41;;;;;;;3.60;1.08;;;;;;;3.64;87.00;99173.09;5007815;28;20030;-75
2023/10/27 08:36:07;;;;;;;1.33;1.23;;;;;;;3.64;87.15;99170.53;5008017;28;20029;-74
2023/10/27 08:38:35;;;;;;;0.77;0.77;;;;;;;3.66;87.37;99167.97;5007161;28;20505;-74
2023/10/27 08:41:01;;;;;;;1.20;1.00;;;;;;;3.68;86.67;99179.06;5007642;28;20558;-74
2023/10/27 08:43:28;;;;;;;0.90;0.90;;;;;;;3.64;86.87;99170.53;5007544;28;20058;-74
2023/10/27 08:45:54;;;;;;;1.02;0.70;;;;;;;3.68;86.36;99173.94;5007767;28;20022;-73
2023/10/27 08:48:19;;;;;;;1.15;1.05;;;;;;;3.69;86.38;99180.81;5007609;28;20030;-74
2023/10/27 08:50:45;;;;;;;1.08;0.98;;;;;;;3.67;86.48;99185.94;5007532;28;20018;-74
2023/10/27 08:53:14;;;;;;;1.08;0.98;;;;;;;3.68;86.43;99176.50;5007491;28;20030;-73
2023/10/27 08:55:40;;;;;;;2.38;1.58;;;;;;;3.74;85.97;99185.94;5007651;28;20048;-74
2023/10/27 08:58:05;;;;;;;1.75;0.98;;;;;;;3.76;85.29;99174.81;5007399;28;20026;-73
2023/10/27 09:00:30;;;;;;;1.58;1.25;;;;;;;3.69;85.36;99180.81;5007441;28;20022;-74
2023/10/27 09:02:56;;;;;;;1.77;1.67;;;;;;;3.65;85.17;99186.78;5007394;28;20466;-74
2023/10/27 09:05:24;;;;;;;2.10;1.70;;;;;;;3.66;85.19;99194.47;5007316;28;20026;-74
2023/10/27 09:07:50;;;;;;;0.60;0.60;;;;;;;3.68;85.48;99182.50;5007393;28;20019;-74
2023/10/27 09:10:19;;;;;;;0.50;0.50;;;;;;;3.71;84.94;99187.63;5006894;28;20022;-73
2023/10/27 09:12:44;;;;;;;1.55;1.45;;;;;;;3.72;84.78;99189.34;5006578;28;20026;-73
2023/10/27 09:15:12;;;;;;;1.67;1.52;;;;;;;3.68;84.74;99190.22;5005795;28;20089;-74
2023/10/27 09:17:53;;;;;;;1.67;1.15;;;;;;;3.74;84.71;99196.22;5007046;28;20026;-74
2023/10/27 09:20:23;;;;;;;1.00;0.90;;;;;;;3.68;84.41;99187.66;5007072;28;20479;-73
2023/10/27 09:23:00;;;;;;;5.50;1.80;;;;;;;3.68;84.50;99197.91;5007210;28;20062;-74
2023/10/27 09:25:31;;;;;;;3.58;1.55;;;;;;;3.62;84.64;99182.50;4989582;28;20386;-75
2023/10/27 09:27:58;;;;;;;1.93;1.10;;;;;;;3.66;84.30;99184.22;5006930;28;20018;-74
2023/10/27 09:30:30;;;;;;;2.25;1.08;;;;;;;3.73;84.54;99187.63;5007028;28;20054;-75
2023/10/27 09:33:22;;;;;;;1.73;1.63;;;;;;;3.78;84.25;99191.06;5007155;28;20054;-75
2023/10/27 09:35:51;;;;;;;1.50;1.30;;;;;;;3.76;84.14;99189.34;5007009;28;20101;-74
2023/10/27 09:38:17;;;;;;;0.88;0.88;;;;;;;3.77;84.18;99193.63;5007179;28;20030;-75
2023/10/27 09:40:47;;;;;;;0.55;0.55;;;;;;;3.75;84.23;99191.06;5006739;28;20418;-74
2023/10/27 09:43:20;;;;;;;1.42;0.88;;;;;;;3.79;83.97;99179.94;5006373;28;20022;-75
2023/10/27 09:45:54;;;;;;;1.10;1.00;;;;;;;3.79;83.62;99189.34;5006559;28;20026;-73
2023/10/27 09:48:30;;;;;;;3.03;1.95;;;;;;;3.80;83.08;99179.06;5006633;28;20057;-76
2023/10/27 09:51:10;;;;;;;2.20;1.33;;;;;;;3.80;83.46;99178.22;5006514;28;20026;-77
2023/10/27 09:53:37;;;;;;;2.50;1.75;;;;;;;3.78;83.26;99177.38;5006518;28;20027;-74
2023/10/27 09:56:03;;;;;;;0.85;0.85;;;;;;;3.79;83.53;99168.81;5006548;28;20026;-73
2023/10/27 09:58:34;;;;;;;0.93;0.93;;;;;;;3.80;83.43;99173.09;4988770;28;20022;-75
2023/10/27 10:01:00;;;;;;;0.60;0.60;;;;;;;3.85;83.23;99186.75;5006277;28;20053;-74
2023/10/27 10:03:29;;;;;;;1.75;1.65;;;;;;;3.80;83.44;99175.66;5006471;28;20029;-73
2023/10/27 10:06:15;;;;;;;4.57;2.47;;;;;;;3.91;83.33;99184.22;5006274;28;20034;-74
2023/10/27 10:09:01;;;;;;;2.20;1.65;;;;;;;3.84;82.95;99179.94;5006331;28;20455;-74
2023/10/27 10:11:26;;;;;;;0.60;0.60;;;;;;;3.83;82.44;99180.78;5004574;28;20034;-74
2023/10/27 10:13:51;;;;;;;1.20;1.13;;;;;;;3.80;82.22;99191.06;5005909;28;20048;-74
2023/10/27 10:16:17;;;;;;;1.17;1.08;;;;;;;3.72;82.60;99196.22;5006107;28;20026;-76
2023/10/27 10:18:53;;;;;;;0.70;0.70;;;;;;;3.66;82.77;99184.22;5004650;28;20026;-72
2023/10/27 10:21:40;;;;;;;1.42;1.33;;;;;;;3.71;83.09;99187.63;5005256;28;20102;-75
2023/10/27 10:24:08;;;;;;;1.13;1.02;;;;;;;3.64;83.08;99178.25;5004817;28;20033;-74
2023/10/27 10:27:01;;;;;;;1.83;1.00;;;;;;;3.71;83.03;99197.91;5006046;28;20493;-74
2023/10/27 10:29:32;;;;;;;1.50;1.15;;;;;;;3.68;82.98;99182.50;5003991;28;20101;-75
2023/10/27 10:32:33;;;;;;;1.70;1.50;;;;;;;3.78;83.06;99187.63;5004562;28;20110;-74
2023/10/27 10:35:24;;;;;;;0.95;0.95;;;;;;;3.81;82.93;99187.63;5005765;28;20282;-75
2023/10/27 10:37:53;;;;;;;4.72;2.10;;;;;;;3.76;82.45;99168.81;5005926;28;20049;-74
2023/10/27 10:40:22;;;;;;;1.50;1.40;;;;;;;3.74;82.11;99178.25;5005721;28;20026;-74
2023/10/27 10:43:18;;;;;;;0.85;0.85;;;;;;;3.72;82.50;99189.34;5004355;28;20026;-74
2023/10/27 10:45:45;;;;;;;1.05;0.98;;;;;;;3.72;82.49;99194.47;5005792;28;20026;-75
2023/10/27 10:48:12;;;;;;;6.75;1.67;;;;;;;3.67;82.43;99183.38;5005625;28;20030;-74
2023/10/27 10:50:37;;;;;;;3.05;2.17;;;;;;;3.70;82.57;99192.78;5005714;28;20022;-74
2023/10/27 10:53:24;;;;;;;1.27;1.08;;;;;;;3.74;82.61;99183.38;5005532;28;20031;-74
2023/10/27 10:55:51;;;;;;;3.08;1.92;;;;;;;3.78;82.19;99188.50;5004382;28;20022;-73
2023/10/27 10:58:24;;;;;;;1.60;1.48;;;;;;;3.76;82.19;99186.78;5005538;28;20038;-73
2023/10/27 11:00:50;;;;;;;3.53;2.83;;;;;;;3.77;82.34;99184.19;5004252;28;20022;-75
2023/10/27 11:03:17;;;;;;;3.05;2.22;;;;;;;3.81;82.20;99183.38;5005655;28;20022;-74
2023/10/27 11:05:43;;;;;;;1.13;1.08;;;;;;;3.85;82.31;99171.34;5004255;28;20023;-74
2023/10/27 11:08:09;;;;;;;2.67;1.48;;;;;;;3.95;81.96;99172.22;5005630;28;20026;-74
2023/10/27 11:10:35;;;;;;;4.13;2.47;;;;;;;3.94;81.94;99163.66;5005365;28;20030;-74
2023/10/27 11:13:09;;;;;;;1.35;1.25;;;;;;;4.04;81.59;99184.19;5003650;28;20019;-73
2023/10/27 11:15:51;;;;;;;0.77;0.77;;;;;;;4.03;81.57;99179.91;5005424;28;20077;-74
2023/10/27 11:18:17;;;;;;;1.80;1.70;;;;;;;4.14;81.55;99174.78;5003969;28;20506;-74
2023/10/27 11:20:45;;;;;;;0.68;0.63;;;;;;;4.16;81.85;99173.91;5005115;28;20038;-75
2023/10/27 11:23:15;;;;;;;2.45;1.15;;;;;;;4.27;80.89;99175.56;5005334;28;20057;-74
2023/10/27 11:25:42;;;;;;;3.35;1.55;;;;;;;4.18;80.79;99161.91;5003722;28;20026;-74
2023/10/27 11:28:26;;;;;;;0.82;0.77;;;;;;;4.18;80.25;99176.47;5005094;28;20033;-74
2023/10/27 11:31:31;;;;;;;2.20;1.02;;;;;;;4.09;80.34;99167.91;5005355;28;20038;-74
2023/10/27 11:34:01;;;;;;;9.05;2.55;;;;;;;4.03;80.20;99164.50;5007889;28;20085;-74
2023/10/27 11:36:35;;;;;;;0.98;0.90;;;;;;;4.00;80.35;99161.94;5009050;28;20041;-74
2023/10/27 11:39:17;;;;;;;1.55;1.45;;;;;;;4.01;80.48;99171.38;5008461;28;20049;-74
2023/10/27 11:42:01;;;;;;;0.80;0.80;;;;;;;4.06;80.33;99179.91;5008852;28;20034;-74